createdAt,value
2022-09-10T00:01:00.677Z,4.27
2022-09-10T00:03:27.618Z,7.40
2022-09-10T00:05:54.620Z,6.13
2022-09-10T00:08:21.865Z,5.67
2022-09-10T00:10:51.756Z,7.33
2022-09-10T00:13:21.962Z,4.43
2022-09-10T00:15:52.569Z,9.43
2022-09-10T00:18:22.219Z,5.93
2022-09-10T00:20:56.094Z,8.53
2022-09-10T00:23:26.522Z,7.23
2022-09-10T00:25:54.946Z,6.10
2022-09-10T00:28:23.596Z,8.37
2022-09-10T00:30:51.928Z,5.30
2022-09-10T00:33:19.842Z,4.23
2022-09-10T00:35:47.060Z,6.77
2022-09-10T00:38:15.442Z,7.53
2022-09-10T00:40:42.288Z,5.17
2022-09-10T00:43:15.569Z,8.03
2022-09-10T00:45:46.192Z,9.57
2022-09-10T00:48:28.715Z,6.60
2022-09-10T00:50:57.143Z,5.97
2022-09-10T00:53:27.828Z,5.17
2022-09-10T00:55:59.865Z,11.03
2022-09-10T00:58:28.400Z,6.73
2022-09-10T01:01:01.425Z,7.97
2022-09-10T01:03:31.393Z,4.50
2022-09-10T01:05:59.139Z,10.70
2022-09-10T01:08:27.531Z,8.63
2022-09-10T01:11:11.246Z,6.97
2022-09-10T01:13:57.336Z,6.53
2022-09-10T01:16:56.534Z,7.67
2022-09-10T01:19:42.310Z,8.30
2022-09-10T01:22:34.466Z,5.03
2022-09-10T01:25:26.149Z,8.10
2022-09-10T01:27:56.455Z,5.90
2022-09-10T01:30:35.075Z,5.90
2022-09-10T01:33:12.539Z,10.27
2022-09-10T01:35:52.373Z,8.25
2022-09-10T01:38:32.490Z,4.78
2022-09-10T01:41:00.811Z,4.00
2022-09-10T01:43:33.800Z,6.60
2022-09-10T01:46:15.760Z,5.07
2022-09-10T01:49:06.242Z,6.43
2022-09-10T01:51:52.160Z,6.93
2022-09-10T01:55:03.589Z,5.82
2022-09-10T01:57:58.809Z,6.87
2022-09-10T02:00:36.114Z,7.50
2022-09-10T02:03:11.518Z,5.83
2022-09-10T02:05:41.754Z,11.97
2022-09-10T02:08:18.135Z,6.77
2022-09-10T02:11:00.542Z,5.40
2022-09-10T02:13:32.076Z,6.37
2022-09-10T02:16:34.256Z,4.77
2022-09-10T02:19:03.988Z,10.43
2022-09-10T02:21:32.254Z,5.37
2022-09-10T02:24:05.783Z,7.00
2022-09-10T02:26:34.068Z,5.93
2022-09-10T02:29:02.062Z,6.07
2022-09-10T02:31:29.828Z,3.60
2022-09-10T02:33:56.772Z,4.13
2022-09-10T02:36:26.422Z,4.73
2022-09-10T02:38:56.806Z,8.47
2022-09-10T02:41:26.260Z,7.57
2022-09-10T02:43:54.899Z,9.73
2022-09-10T02:46:22.832Z,8.57
2022-09-10T02:48:50.343Z,5.30
2022-09-10T02:51:17.435Z,7.63
2022-09-10T02:53:45.442Z,5.17
2022-09-10T02:56:13.737Z,5.63
2022-09-10T02:58:42.583Z,3.83
2022-09-10T03:01:14.703Z,5.73
2022-09-10T03:03:43.134Z,5.00
2022-09-10T03:06:10.684Z,6.50
2022-09-10T03:08:38.166Z,3.77
2022-09-10T03:11:05.831Z,5.70
2022-09-10T03:13:34.032Z,4.63
2022-09-10T03:16:05.285Z,6.57
2022-09-10T03:18:33.588Z,5.33
2022-09-10T03:21:09.835Z,2.83
2022-09-10T03:23:38.006Z,2.33
2022-09-10T03:26:06.525Z,4.27
2022-09-10T03:28:34.082Z,4.57
2022-09-10T03:31:04.269Z,5.53
2022-09-10T03:33:37.519Z,6.82
2022-09-10T03:36:05.357Z,4.15
2022-09-10T03:38:33.503Z,3.42
2022-09-10T03:41:03.114Z,5.40
2022-09-10T03:43:31.014Z,4.13
2022-09-10T03:45:58.879Z,4.78
2022-09-10T03:48:25.925Z,6.75
2022-09-10T03:50:52.991Z,8.00
2022-09-10T03:53:19.898Z,9.17
2022-09-10T03:55:48.725Z,5.23
2022-09-10T03:58:18.346Z,7.33
2022-09-10T04:00:46.575Z,5.13
2022-09-10T04:03:14.572Z,2.93
2022-09-10T04:05:45.865Z,5.50
2022-09-10T04:08:14.644Z,4.90
2022-09-10T04:10:44.030Z,7.33
2022-09-10T04:13:11.637Z,2.97
2022-09-10T04:15:39.948Z,5.23
2022-09-10T04:18:08.456Z,3.67
2022-09-10T04:20:36.617Z,4.57
2022-09-10T04:23:07.733Z,4.27
2022-09-10T04:25:36.835Z,5.30
2022-09-10T04:28:04.200Z,5.00
2022-09-10T04:30:32.698Z,4.03
2022-09-10T04:33:00.825Z,6.97
2022-09-10T04:35:30.643Z,4.50
2022-09-10T04:38:01.007Z,5.70
2022-09-10T04:40:27.972Z,5.17
2022-09-10T04:42:54.883Z,4.20
2022-09-10T04:45:22.117Z,5.87
2022-09-10T04:47:49.585Z,3.40
2022-09-10T04:50:16.746Z,3.17
2022-09-10T04:53:03.609Z,4.63
2022-09-10T04:55:31.801Z,3.87
2022-09-10T04:57:59.815Z,4.47
2022-09-10T05:00:27.084Z,5.53
2022-09-10T05:02:54.499Z,4.10
2022-09-10T05:05:21.515Z,6.07
2022-09-10T05:07:49.088Z,6.30
2022-09-10T05:10:16.315Z,3.47
2022-09-10T05:12:43.952Z,4.43
2022-09-10T05:15:12.221Z,5.50
2022-09-10T05:17:39.911Z,5.80
2022-09-10T05:20:08.560Z,5.63
2022-09-10T05:22:42.291Z,3.20
2022-09-10T05:25:10.221Z,3.57
2022-09-10T05:27:38.360Z,4.90
2022-09-10T05:30:08.189Z,3.57
2022-09-10T05:32:35.877Z,3.33
2022-09-10T05:35:05.289Z,5.40
2022-09-10T05:37:36.512Z,3.43
2022-09-10T05:40:06.453Z,3.20
2022-09-10T05:42:33.988Z,4.40
2022-09-10T05:45:00.904Z,5.57
2022-09-10T05:47:28.304Z,3.87
2022-09-10T05:49:56.490Z,3.13
2022-09-10T05:52:24.427Z,3.73
2022-09-10T05:54:52.234Z,4.17
2022-09-10T05:57:19.472Z,3.47
2022-09-10T05:59:46.898Z,3.73
2022-09-10T06:02:21.909Z,5.75
2022-09-10T06:04:50.933Z,5.72
2022-09-10T06:07:18.002Z,3.90
2022-09-10T06:09:45.093Z,4.63
2022-09-10T06:12:21.702Z,4.15
2022-09-10T06:14:49.635Z,3.50
2022-09-10T06:17:22.065Z,4.30
2022-09-10T06:19:51.873Z,4.80
2022-09-10T06:22:19.475Z,4.88
2022-09-10T06:24:50.838Z,5.63
2022-09-10T06:27:18.977Z,6.03
2022-09-10T06:29:47.345Z,3.70
2022-09-10T06:32:14.429Z,4.85
2022-09-10T06:34:42.881Z,5.00
2022-09-10T06:37:10.873Z,6.00
2022-09-10T06:39:38.479Z,5.28
2022-09-10T06:42:06.707Z,6.32
2022-09-10T06:44:52.085Z,6.68
2022-09-10T06:50:21.994Z,6.00
2022-09-10T06:52:50.260Z,4.40
2022-09-10T06:55:20.587Z,4.32
2022-09-10T06:57:47.438Z,7.07
2022-09-10T07:00:16.606Z,4.47
2022-09-10T07:02:46.576Z,6.97
2022-09-10T07:05:13.580Z,5.60
2022-09-10T07:07:42.148Z,5.38
2022-09-10T07:10:09.573Z,4.68
2022-09-10T07:12:36.769Z,4.20
2022-09-10T07:15:06.615Z,4.97
2022-09-10T07:17:36.153Z,4.57
2022-09-10T07:20:04.052Z,4.47
2022-09-10T07:22:43.716Z,4.70
2022-09-10T07:25:12.824Z,4.53
2022-09-10T07:27:54.234Z,5.70
2022-09-10T07:30:22.321Z,3.67
2022-09-10T07:32:50.555Z,4.28
2022-09-10T07:35:22.109Z,6.57
2022-09-10T07:37:50.141Z,4.82
2022-09-10T07:40:19.926Z,7.45
2022-09-10T07:42:46.962Z,7.22
2022-09-10T07:45:16.044Z,11.40
2022-09-10T07:47:46.621Z,5.38
2022-09-10T07:50:14.911Z,6.13
2022-09-10T07:52:42.655Z,4.32
2022-09-10T07:55:10.569Z,6.25
2022-09-10T07:57:41.034Z,5.95
2022-09-10T08:00:15.545Z,4.63
2022-09-10T08:02:43.767Z,4.53
2022-09-10T08:05:16.934Z,7.40
2022-09-10T08:07:44.906Z,4.93
2022-09-10T08:10:12.114Z,4.55
2022-09-10T08:12:41.072Z,5.00
2022-09-10T08:15:10.794Z,5.35
2022-09-10T08:17:40.094Z,5.13
2022-09-10T08:20:09.954Z,6.93
2022-09-10T08:22:38.898Z,9.00
2022-09-10T08:25:08.589Z,4.32
2022-09-10T08:27:37.270Z,5.85
2022-09-10T08:30:06.914Z,6.60
2022-09-10T08:32:37.290Z,6.35
2022-09-10T08:35:05.883Z,7.93
2022-09-10T08:37:34.210Z,4.63
2022-09-10T08:40:03.244Z,5.63
2022-09-10T08:42:46.102Z,5.65
2022-09-10T08:45:22.304Z,7.35
2022-09-10T08:48:11.660Z,4.60
2022-09-10T08:51:01.489Z,5.18
2022-09-10T08:53:40.878Z,4.97
2022-09-10T08:56:16.181Z,3.40
2022-09-10T08:58:50.536Z,5.30
2022-09-10T09:01:36.375Z,7.30
2022-09-10T09:04:13.106Z,3.22
2022-09-10T09:06:51.412Z,3.58
2022-09-10T09:09:21.947Z,3.35
2022-09-10T09:12:00.174Z,3.38
2022-09-10T09:14:30.909Z,2.70
2022-09-10T09:17:06.717Z,3.42
2022-09-10T09:19:45.188Z,3.70
2022-09-10T09:22:19.609Z,4.20
2022-09-10T09:25:00.715Z,3.95
2022-09-10T09:27:33.615Z,2.60
2022-09-10T09:30:06.639Z,4.32
2022-09-10T09:32:42.131Z,5.05
2022-09-10T09:35:21.448Z,3.47
2022-09-10T09:37:52.074Z,4.57
2022-09-10T09:40:33.752Z,4.13
2022-09-10T09:43:13.414Z,4.05
2022-09-10T09:45:45.551Z,3.47
2022-09-10T09:48:20.443Z,3.95
2022-09-10T09:51:00.442Z,4.45
2022-09-10T09:53:29.387Z,4.88
2022-09-10T09:56:02.104Z,3.85
2022-09-10T09:58:36.315Z,2.88
2022-09-10T10:01:09.297Z,3.20
2022-09-10T10:03:43.961Z,4.47
2022-09-10T10:06:12.198Z,5.78
2022-09-10T10:08:41.396Z,4.32
2022-09-10T10:11:09.385Z,3.40
2022-09-10T10:13:39.877Z,4.00
2022-09-10T10:16:17.839Z,4.72
2022-09-10T10:18:45.888Z,3.97
2022-09-10T10:21:33.857Z,3.55
2022-09-10T10:24:01.089Z,3.25
2022-09-10T10:26:33.626Z,3.03
2022-09-10T10:29:16.319Z,3.78
2022-09-10T10:31:46.606Z,3.53
2022-09-10T10:34:35.163Z,2.90
2022-09-10T10:37:25.781Z,5.25
2022-09-10T10:40:01.066Z,4.25
2022-09-10T10:42:37.330Z,5.63
2022-09-10T10:45:39.053Z,3.92
2022-09-10T10:48:15.301Z,3.70
2022-09-10T10:51:20.455Z,3.90
2022-09-10T10:53:50.127Z,5.78
2022-09-10T10:56:40.786Z,13.35
2022-09-10T10:59:09.267Z,5.57
2022-09-10T11:01:42.388Z,6.88
2022-09-10T11:04:38.187Z,2.92
2022-09-10T11:07:08.888Z,3.50
2022-09-10T11:09:59.512Z,4.03
2022-09-10T11:13:22.165Z,3.83
2022-09-10T11:16:04.237Z,4.88
2022-09-10T11:18:58.112Z,5.55
2022-09-10T11:21:29.688Z,6.03
2022-09-10T11:23:59.946Z,5.03
2022-09-10T11:26:45.515Z,6.72
2022-09-10T11:29:41.709Z,4.40
2022-09-10T11:32:16.745Z,4.38
2022-09-10T11:35:23.168Z,5.30
2022-09-10T11:38:01.186Z,4.95
2022-09-10T11:40:46.316Z,6.03
2022-09-10T11:43:51.695Z,7.60
2022-09-10T11:46:30.020Z,5.75
2022-09-10T11:49:16.121Z,6.63
2022-09-10T11:51:44.903Z,6.22
2022-09-10T11:54:18.715Z,7.00
2022-09-10T11:56:52.885Z,6.03
2022-09-10T11:59:38.227Z,6.18
2022-09-10T12:02:14.069Z,7.68
2022-09-10T12:04:49.901Z,7.10
2022-09-10T12:07:47.028Z,7.65
2022-09-10T12:10:19.492Z,8.05
2022-09-10T12:12:50.283Z,7.35
2022-09-10T12:15:37.016Z,5.22
2022-09-10T12:18:16.623Z,5.30
2022-09-10T12:20:57.394Z,4.65
2022-09-10T12:23:29.374Z,4.03
2022-09-10T12:25:58.704Z,4.40
2022-09-10T12:28:53.031Z,5.75
2022-09-10T12:31:21.899Z,4.97
2022-09-10T12:33:49.150Z,4.72
2022-09-10T12:36:36.633Z,4.40
2022-09-10T12:39:25.181Z,7.15
2022-09-10T12:41:52.736Z,10.15
2022-09-10T12:44:35.019Z,9.02
2022-09-10T12:47:14.080Z,7.93
2022-09-10T12:49:54.904Z,9.32
2022-09-10T12:52:52.759Z,8.17
2022-09-10T12:55:43.978Z,8.37
2022-09-10T12:58:34.998Z,9.70
2022-09-10T13:01:08.317Z,7.53
2022-09-10T13:03:35.734Z,8.85
2022-09-10T13:06:05.471Z,8.75
2022-09-10T13:08:41.473Z,7.23
2022-09-10T13:11:35.773Z,7.35
2022-09-10T13:14:06.478Z,9.77
2022-09-10T13:16:34.927Z,8.20
2022-09-10T13:19:22.506Z,8.07
2022-09-10T13:21:51.040Z,7.43
2022-09-10T13:24:37.134Z,11.07
2022-09-10T13:27:08.293Z,7.10
2022-09-10T13:29:39.565Z,7.83
2022-09-10T13:32:26.615Z,6.80
2022-09-10T13:35:05.593Z,7.45
2022-09-10T13:38:02.965Z,5.97
2022-09-10T13:40:51.733Z,8.15
2022-09-10T13:43:25.463Z,7.77
2022-09-10T13:46:04.788Z,11.70
2022-09-10T13:48:46.839Z,6.60
2022-09-10T13:51:32.349Z,8.05
2022-09-10T13:54:07.977Z,9.40
2022-09-10T13:56:36.180Z,9.00
2022-09-10T13:59:05.826Z,9.02
2022-09-10T14:01:49.477Z,8.25
2022-09-10T14:04:35.704Z,13.00
2022-09-10T14:07:16.066Z,9.10
2022-09-10T14:09:49.177Z,9.80
2022-09-10T14:12:19.257Z,9.93
2022-09-10T14:14:50.977Z,10.80
2022-09-10T14:17:31.540Z,11.70
2022-09-10T14:20:01.421Z,9.82
2022-09-10T14:22:30.264Z,11.10
2022-09-10T14:25:02.671Z,10.10
2022-09-10T14:27:37.564Z,10.50
2022-09-10T14:30:23.336Z,10.40
2022-09-10T14:32:51.887Z,10.55
2022-09-10T14:35:39.201Z,10.05
2022-09-10T14:38:35.820Z,9.30
2022-09-10T14:41:08.821Z,10.35
2022-09-10T14:43:38.960Z,9.68
2022-09-10T14:46:08.186Z,11.57
2022-09-10T14:48:41.730Z,11.88
2022-09-10T14:51:18.701Z,9.27
2022-09-10T14:53:50.212Z,21.27
2022-09-10T14:56:24.894Z,14.95
2022-09-10T14:59:31.341Z,9.80
2022-09-10T15:02:00.907Z,10.40
2022-09-10T15:04:30.175Z,7.68
2022-09-10T15:06:59.109Z,7.97
2022-09-10T15:09:27.886Z,11.57
2022-09-10T15:11:54.888Z,9.55
2022-09-10T15:14:22.210Z,8.88
2022-09-10T15:16:52.920Z,8.80
2022-09-10T15:19:20.641Z,8.93
2022-09-10T15:21:48.093Z,8.82
2022-09-10T15:24:17.585Z,12.15
2022-09-10T15:26:44.933Z,9.23
2022-09-10T15:29:12.086Z,8.10
2022-09-10T15:31:39.182Z,6.65
2022-09-10T15:34:07.894Z,7.07
2022-09-10T15:36:39.898Z,7.68
2022-09-10T15:39:08.288Z,6.68
2022-09-10T15:41:35.121Z,7.22
2022-09-10T15:44:02.952Z,8.18
2022-09-10T15:46:29.931Z,8.68
2022-09-10T15:48:59.356Z,6.85
2022-09-10T15:51:26.971Z,6.93
2022-09-10T15:53:54.628Z,6.13
2022-09-10T15:56:24.834Z,5.10
2022-09-10T15:58:56.991Z,5.43
2022-09-10T16:01:26.299Z,6.25
2022-09-10T16:03:55.652Z,5.82
2022-09-10T16:06:24.428Z,6.22
2022-09-10T16:08:57.377Z,5.65
2022-09-10T16:11:25.075Z,5.70
2022-09-10T16:13:52.464Z,7.78
2022-09-10T16:16:22.232Z,6.30
2022-09-10T16:18:52.671Z,6.45
2022-09-10T16:21:22.465Z,7.40
2022-09-10T16:23:51.810Z,6.85
2022-09-10T16:26:22.969Z,8.20
2022-09-10T16:28:51.499Z,8.50
2022-09-10T16:31:19.639Z,7.57
2022-09-10T16:33:46.767Z,9.20
2022-09-10T16:36:15.236Z,8.90
2022-09-10T16:38:43.667Z,6.88
2022-09-10T16:41:13.140Z,7.05
2022-09-10T16:43:41.136Z,7.93
2022-09-10T16:46:10.543Z,7.40
2022-09-10T16:48:39.638Z,8.52
2022-09-10T16:51:19.600Z,7.43
2022-09-10T16:53:52.180Z,8.48
2022-09-10T16:56:19.100Z,9.63
2022-09-10T16:58:48.310Z,10.40
2022-09-10T17:01:16.202Z,13.00
2022-09-10T17:03:45.156Z,13.15
2022-09-10T17:06:20.262Z,7.28
2022-09-10T17:08:47.778Z,8.80
2022-09-10T17:11:16.064Z,9.73
2022-09-10T17:13:43.194Z,18.70
2022-09-10T17:16:16.781Z,14.82
2022-09-10T17:18:48.112Z,14.32
2022-09-10T17:21:14.985Z,27.27
2022-09-10T17:23:41.968Z,22.33
2022-09-10T17:26:09.844Z,16.13
2022-09-10T17:28:37.582Z,12.73
2022-09-10T17:31:05.308Z,13.30
2022-09-10T17:33:33.539Z,11.52
2022-09-10T17:36:04.225Z,13.63
2022-09-10T17:38:33.768Z,12.23
2022-09-10T17:41:02.895Z,16.77
2022-09-10T17:43:34.712Z,18.08
2022-09-10T17:46:06.835Z,17.80
2022-09-10T17:48:35.837Z,17.13
2022-09-10T17:51:02.827Z,14.05
2022-09-10T17:53:30.414Z,14.05
2022-09-10T17:56:03.802Z,11.13
2022-09-10T17:58:32.579Z,11.88
2022-09-10T18:01:01.867Z,10.07
2022-09-10T18:03:29.927Z,8.70
2022-09-10T18:05:57.125Z,8.30
2022-09-10T18:08:23.985Z,8.73
2022-09-10T18:10:59.958Z,7.57
2022-09-10T18:13:27.602Z,10.63
2022-09-10T18:15:54.532Z,8.20
2022-09-10T18:18:22.273Z,10.05
2022-09-10T18:20:49.106Z,8.52
2022-09-10T18:23:15.984Z,8.88
2022-09-10T18:25:47.864Z,9.93
2022-09-10T18:28:16.606Z,11.80
2022-09-10T18:30:43.990Z,10.40
2022-09-10T18:33:11.687Z,12.25
2022-09-10T18:35:38.839Z,12.13
2022-09-10T18:38:05.862Z,10.40
2022-09-10T18:40:36.814Z,11.25
2022-09-10T18:43:05.825Z,10.95
2022-09-10T18:45:32.910Z,12.15
2022-09-10T18:48:00.940Z,12.00
2022-09-10T18:50:27.930Z,13.13
2022-09-10T18:52:54.725Z,12.10
2022-09-10T18:55:21.525Z,12.07
2022-09-10T18:57:48.363Z,13.98
2022-09-10T19:00:16.566Z,14.40
2022-09-10T19:02:44.560Z,15.20
2022-09-10T19:05:12.390Z,15.75
2022-09-10T19:07:39.658Z,15.18
2022-09-10T19:10:07.411Z,16.60
2022-09-10T19:12:34.662Z,13.95
2022-09-10T19:15:01.566Z,13.50
2022-09-10T19:17:28.442Z,14.77
2022-09-10T19:19:55.291Z,15.07
2022-09-10T19:22:22.323Z,16.27
2022-09-10T19:24:56.547Z,12.93
2022-09-10T19:27:24.647Z,15.75
2022-09-10T19:29:51.769Z,16.70
2022-09-10T19:32:20.061Z,21.80
2022-09-10T19:34:52.608Z,22.55
2022-09-10T19:37:19.897Z,24.75
2022-09-10T19:39:47.518Z,21.35
2022-09-10T19:42:14.589Z,23.65
2022-09-10T19:44:41.403Z,24.35
2022-09-10T19:47:08.347Z,25.88
2022-09-10T19:49:35.368Z,25.40
2022-09-10T19:52:04.285Z,23.95
2022-09-10T19:54:31.882Z,23.23
2022-09-10T19:56:58.745Z,22.65
2022-09-10T19:59:25.747Z,20.20
2022-09-10T20:01:53.367Z,20.80
2022-09-10T20:04:20.335Z,18.70
2022-09-10T20:06:47.703Z,18.25
2022-09-10T20:09:14.648Z,22.75
2022-09-10T20:11:41.664Z,22.63
2022-09-10T20:14:14.545Z,17.90
2022-09-10T20:16:43.820Z,21.60
2022-09-10T20:19:13.173Z,17.88
2022-09-10T20:21:40.305Z,19.77
2022-09-10T20:24:08.415Z,25.33
2022-09-10T20:26:44.189Z,22.55
2022-09-10T20:29:13.718Z,19.92
2022-09-10T20:31:42.452Z,21.02
2022-09-10T20:34:13.789Z,21.38
2022-09-10T20:36:43.694Z,21.13
2022-09-10T20:39:13.632Z,21.85
2022-09-10T20:41:41.065Z,21.30
2022-09-10T20:44:09.789Z,22.67
2022-09-10T20:46:36.741Z,24.20
2022-09-10T20:49:03.722Z,24.02
2022-09-10T20:51:32.795Z,24.85
2022-09-10T20:54:00.203Z,23.35
2022-09-10T20:56:27.343Z,24.15
2022-09-10T20:58:54.236Z,24.73
2022-09-10T21:01:23.578Z,27.08
2022-09-10T21:03:54.727Z,30.08
2022-09-10T21:06:25.678Z,24.75
2022-09-10T21:08:55.530Z,25.27
2022-09-10T21:11:24.120Z,27.42
2022-09-10T21:13:55.617Z,26.15
2022-09-10T21:16:36.806Z,28.58
2022-09-10T21:19:10.849Z,29.52
2022-09-10T21:21:39.557Z,32.00
2022-09-10T21:24:11.959Z,28.02
2022-09-10T21:26:40.749Z,30.65
2022-09-10T21:29:12.192Z,31.05
2022-09-10T21:31:39.676Z,31.88
2022-09-10T21:34:06.750Z,29.48
2022-09-10T21:36:35.887Z,29.17
2022-09-10T21:39:05.998Z,30.27
2022-09-10T21:41:39.485Z,29.35
2022-09-10T21:44:12.191Z,29.08
2022-09-10T21:46:40.036Z,28.67
2022-09-10T21:49:07.030Z,29.60
2022-09-10T21:51:34.036Z,29.40
2022-09-10T21:54:01.911Z,29.95
2022-09-10T21:56:29.734Z,29.63
2022-09-10T21:58:59.783Z,31.02
2022-09-10T22:01:30.385Z,34.92
2022-09-10T22:04:02.694Z,31.02
2022-09-10T22:06:31.820Z,33.20
2022-09-10T22:09:01.497Z,35.25
2022-09-10T22:11:32.013Z,33.35
2022-09-10T22:14:04.795Z,37.13
2022-09-10T22:16:34.675Z,48.57
2022-09-10T22:19:05.562Z,39.75
2022-09-10T22:21:33.304Z,41.25
2022-09-10T22:24:00.167Z,37.95
2022-09-10T22:26:31.064Z,40.47
2022-09-10T22:28:59.594Z,44.00
2022-09-10T22:31:31.227Z,41.50
2022-09-10T22:34:06.615Z,44.10
2022-09-10T22:36:36.431Z,47.28
2022-09-10T22:39:15.989Z,43.30
2022-09-10T22:41:43.837Z,44.38
2022-09-10T22:44:11.414Z,49.28
2022-09-10T22:46:40.111Z,53.00
2022-09-10T22:49:07.797Z,54.97
2022-09-10T22:51:37.288Z,51.80
2022-09-10T22:54:05.323Z,55.47
2022-09-10T22:56:32.616Z,52.60
2022-09-10T22:59:00.079Z,51.73
2022-09-10T23:01:33.360Z,57.03
2022-09-10T23:04:01.803Z,56.80
2022-09-10T23:06:31.917Z,59.87
2022-09-10T23:09:06.756Z,52.90
2022-09-10T23:11:35.472Z,55.57
2022-09-10T23:14:05.917Z,57.13
2022-09-10T23:16:35.326Z,49.37
2022-09-10T23:19:07.816Z,51.70
2022-09-10T23:21:36.149Z,46.63
2022-09-10T23:24:06.315Z,49.67
2022-09-10T23:26:33.597Z,60.30
2022-09-10T23:29:03.546Z,61.27
2022-09-10T23:31:32.766Z,50.10
2022-09-10T23:34:12.034Z,50.13
2022-09-10T23:36:41.598Z,51.67
2022-09-10T23:39:12.985Z,51.23
2022-09-10T23:41:41.440Z,55.27
2022-09-10T23:44:09.642Z,59.33
2022-09-10T23:46:37.258Z,62.90
2022-09-10T23:49:05.238Z,57.73
2022-09-10T23:51:32.315Z,54.37
2022-09-10T23:53:59.522Z,57.33
2022-09-10T23:56:28.414Z,52.77
2022-09-10T23:58:57.996Z,54.50
